sensor_id;sensor_type;location;lat;lon;timestamp;temperature;humidity
57434;DHT22;43277;52.672;6.984;2023-06-22T00:01:52;18.90;99.90
57434;DHT22;43277;52.672;6.984;2023-06-22T00:04:18;19.00;99.90
57434;DHT22;43277;52.672;6.984;2023-06-22T00:06:44;18.90;99.90
57434;DHT22;43277;52.672;6.984;2023-06-22T00:09:09;18.90;99.90
57434;DHT22;43277;52.672;6.984;2023-06-22T00:11:36;18.90;99.90
57434;DHT22;43277;52.672;6.984;2023-06-22T00:14:03;18.90;99.90
57434;DHT22;43277;52.672;6.984;2023-06-22T00:16:28;18.90;99.90
57434;DHT22;43277;52.672;6.984;2023-06-22T00:18:54;18.80;99.90
57434;DHT22;43277;52.672;6.984;2023-06-22T00:21:19;18.80;99.90
57434;DHT22;43277;52.672;6.984;2023-06-22T00:23:46;18.80;99.90
57434;DHT22;43277;52.672;6.984;2023-06-22T00:26:13;18.80;99.90
57434;DHT22;43277;52.672;6.984;2023-06-22T00:28:38;18.80;99.90
57434;DHT22;43277;52.672;6.984;2023-06-22T00:31:04;18.80;99.90
57434;DHT22;43277;52.672;6.984;2023-06-22T00:33:30;18.80;99.90
57434;DHT22;43277;52.672;6.984;2023-06-22T00:35:55;18.80;99.90
57434;DHT22;43277;52.672;6.984;2023-06-22T00:38:21;18.80;99.90
57434;DHT22;43277;52.672;6.984;2023-06-22T00:40:47;18.80;99.90
57434;DHT22;43277;52.672;6.984;2023-06-22T00:43:12;18.70;99.90
57434;DHT22;43277;52.672;6.984;2023-06-22T00:45:38;18.70;99.90
57434;DHT22;43277;52.672;6.984;2023-06-22T00:48:04;18.70;99.90
57434;DHT22;43277;52.672;6.984;2023-06-22T00:50:32;18.70;99.90
57434;DHT22;43277;52.672;6.984;2023-06-22T00:53:06;18.60;99.90
57434;DHT22;43277;52.672;6.984;2023-06-22T00:55:36;18.60;99.90
57434;DHT22;43277;52.672;6.984;2023-06-22T00:58:07;18.60;99.90
57434;DHT22;43277;52.672;6.984;2023-06-22T01:00:36;18.60;99.90
57434;DHT22;43277;52.672;6.984;2023-06-22T01:03:02;18.50;99.90
57434;DHT22;43277;52.672;6.984;2023-06-22T01:05:28;18.50;99.90
57434;DHT22;43277;52.672;6.984;2023-06-22T01:08:08;18.40;99.90
57434;DHT22;43277;52.672;6.984;2023-06-22T01:10:46;18.40;99.90
57434;DHT22;43277;52.672;6.984;2023-06-22T01:13:35;18.40;99.90
57434;DHT22;43277;52.672;6.984;2023-06-22T01:16:15;18.40;99.90
57434;DHT22;43277;52.672;6.984;2023-06-22T01:18:43;18.30;99.90
57434;DHT22;43277;52.672;6.984;2023-06-22T01:21:14;18.30;99.90
57434;DHT22;43277;52.672;6.984;2023-06-22T01:29:21;18.20;99.90
57434;DHT22;43277;52.672;6.984;2023-06-22T01:31:48;18.10;99.90
57434;DHT22;43277;52.672;6.984;2023-06-22T01:34:16;18.10;99.90
57434;DHT22;43277;52.672;6.984;2023-06-22T01:36:43;18.10;99.90
57434;DHT22;43277;52.672;6.984;2023-06-22T01:39:09;18.10;99.90
57434;DHT22;43277;52.672;6.984;2023-06-22T01:41:38;18.10;99.90
57434;DHT22;43277;52.672;6.984;2023-06-22T01:44:07;18.10;99.90
57434;DHT22;43277;52.672;6.984;2023-06-22T01:46:37;18.00;99.90
57434;DHT22;43277;52.672;6.984;2023-06-22T01:49:05;18.00;99.90
57434;DHT22;43277;52.672;6.984;2023-06-22T01:51:31;18.00;99.90
57434;DHT22;43277;52.672;6.984;2023-06-22T01:53:57;18.00;99.90
57434;DHT22;43277;52.672;6.984;2023-06-22T01:56:23;17.90;99.90
57434;DHT22;43277;52.672;6.984;2023-06-22T01:59:04;17.90;99.90
57434;DHT22;43277;52.672;6.984;2023-06-22T02:01:38;17.90;99.90
57434;DHT22;43277;52.672;6.984;2023-06-22T02:04:19;17.90;99.90
57434;DHT22;43277;52.672;6.984;2023-06-22T02:06:47;17.90;99.90
57434;DHT22;43277;52.672;6.984;2023-06-22T02:09:17;17.80;99.90
57434;DHT22;43277;52.672;6.984;2023-06-22T02:11:46;17.80;99.90
57434;DHT22;43277;52.672;6.984;2023-06-22T02:14:13;17.80;99.90
57434;DHT22;43277;52.672;6.984;2023-06-22T02:16:40;17.70;99.90
57434;DHT22;43277;52.672;6.984;2023-06-22T02:19:06;17.70;99.90
57434;DHT22;43277;52.672;6.984;2023-06-22T02:21:32;17.70;99.90
57434;DHT22;43277;52.672;6.984;2023-06-22T02:23:58;17.70;99.90
57434;DHT22;43277;52.672;6.984;2023-06-22T02:26:25;17.70;99.90
57434;DHT22;43277;52.672;6.984;2023-06-22T02:28:51;17.70;99.90
57434;DHT22;43277;52.672;6.984;2023-06-22T02:31:18;17.60;99.90
57434;DHT22;43277;52.672;6.984;2023-06-22T02:33:43;17.60;99.90
57434;DHT22;43277;52.672;6.984;2023-06-22T02:36:10;17.60;99.90
57434;DHT22;43277;52.672;6.984;2023-06-22T02:38:40;17.60;99.90
57434;DHT22;43277;52.672;6.984;2023-06-22T02:41:16;17.50;99.90
57434;DHT22;43277;52.672;6.984;2023-06-22T02:43:48;17.50;99.90
57434;DHT22;43277;52.672;6.984;2023-06-22T02:46:14;17.50;99.90
57434;DHT22;43277;52.672;6.984;2023-06-22T02:48:42;17.50;99.90
57434;DHT22;43277;52.672;6.984;2023-06-22T02:51:08;17.40;99.90
57434;DHT22;43277;52.672;6.984;2023-06-22T02:53:34;17.40;99.90
57434;DHT22;43277;52.672;6.984;2023-06-22T02:56:02;17.40;99.90
57434;DHT22;43277;52.672;6.984;2023-06-22T02:58:31;17.40;99.90
57434;DHT22;43277;52.672;6.984;2023-06-22T03:01:05;17.40;99.90
57434;DHT22;43277;52.672;6.984;2023-06-22T03:03:31;17.30;99.90
57434;DHT22;43277;52.672;6.984;2023-06-22T03:05:57;17.30;99.90
57434;DHT22;43277;52.672;6.984;2023-06-22T03:08:22;17.20;99.90
57434;DHT22;43277;52.672;6.984;2023-06-22T03:10:48;17.20;99.90
57434;DHT22;43277;52.672;6.984;2023-06-22T03:13:14;17.20;99.90
57434;DHT22;43277;52.672;6.984;2023-06-22T03:15:39;17.20;99.90
57434;DHT22;43277;52.672;6.984;2023-06-22T03:18:05;17.20;99.90
57434;DHT22;43277;52.672;6.984;2023-06-22T03:20:30;17.20;99.90
57434;DHT22;43277;52.672;6.984;2023-06-22T03:22:58;17.20;99.90
57434;DHT22;43277;52.672;6.984;2023-06-22T03:25:24;17.20;99.90
57434;DHT22;43277;52.672;6.984;2023-06-22T03:27:50;17.20;99.90
57434;DHT22;43277;52.672;6.984;2023-06-22T03:30:16;17.30;99.90
57434;DHT22;43277;52.672;6.984;2023-06-22T03:32:41;17.20;99.90
57434;DHT22;43277;52.672;6.984;2023-06-22T03:35:09;17.20;99.90
57434;DHT22;43277;52.672;6.984;2023-06-22T03:37:38;17.20;99.90
57434;DHT22;43277;52.672;6.984;2023-06-22T03:40:04;17.30;99.90
57434;DHT22;43277;52.672;6.984;2023-06-22T03:42:30;17.30;99.90
57434;DHT22;43277;52.672;6.984;2023-06-22T03:44:56;17.30;99.90
57434;DHT22;43277;52.672;6.984;2023-06-22T03:47:22;17.30;99.90
57434;DHT22;43277;52.672;6.984;2023-06-22T03:49:48;17.30;99.90
57434;DHT22;43277;52.672;6.984;2023-06-22T03:52:14;17.30;99.90
57434;DHT22;43277;52.672;6.984;2023-06-22T03:54:40;17.30;99.90
57434;DHT22;43277;52.672;6.984;2023-06-22T03:57:05;17.30;99.90
57434;DHT22;43277;52.672;6.984;2023-06-22T03:59:31;17.30;99.90
57434;DHT22;43277;52.672;6.984;2023-06-22T04:01:57;17.40;99.90
57434;DHT22;43277;52.672;6.984;2023-06-22T04:04:23;17.40;99.90
57434;DHT22;43277;52.672;6.984;2023-06-22T04:06:49;17.40;99.90
57434;DHT22;43277;52.672;6.984;2023-06-22T04:09:14;17.40;99.90
57434;DHT22;43277;52.672;6.984;2023-06-22T04:11:40;17.40;99.90
57434;DHT22;43277;52.672;6.984;2023-06-22T04:14:05;17.50;99.90
57434;DHT22;43277;52.672;6.984;2023-06-22T04:16:31;17.40;99.90
57434;DHT22;43277;52.672;6.984;2023-06-22T04:18:57;17.50;99.90
57434;DHT22;43277;52.672;6.984;2023-06-22T04:21:22;17.40;99.90
57434;DHT22;43277;52.672;6.984;2023-06-22T04:23:48;17.40;99.90
57434;DHT22;43277;52.672;6.984;2023-06-22T04:26:14;17.40;99.90
57434;DHT22;43277;52.672;6.984;2023-06-22T04:28:40;17.40;99.90
57434;DHT22;43277;52.672;6.984;2023-06-22T04:31:06;17.40;99.90
57434;DHT22;43277;52.672;6.984;2023-06-22T04:33:31;17.40;99.90
57434;DHT22;43277;52.672;6.984;2023-06-22T04:35:58;17.50;99.90
57434;DHT22;43277;52.672;6.984;2023-06-22T04:38:24;17.40;99.90
57434;DHT22;43277;52.672;6.984;2023-06-22T04:40:50;17.50;99.90
57434;DHT22;43277;52.672;6.984;2023-06-22T04:43:16;17.50;99.90
57434;DHT22;43277;52.672;6.984;2023-06-22T04:45:41;17.50;99.90
57434;DHT22;43277;52.672;6.984;2023-06-22T04:48:07;17.50;99.90
57434;DHT22;43277;52.672;6.984;2023-06-22T04:50:38;17.40;99.90
57434;DHT22;43277;52.672;6.984;2023-06-22T04:53:06;17.50;99.90
57434;DHT22;43277;52.672;6.984;2023-06-22T04:55:32;17.50;99.90
57434;DHT22;43277;52.672;6.984;2023-06-22T04:57:58;17.50;99.90
57434;DHT22;43277;52.672;6.984;2023-06-22T05:00:30;17.50;99.90
57434;DHT22;43277;52.672;6.984;2023-06-22T05:02:56;17.50;99.90
57434;DHT22;43277;52.672;6.984;2023-06-22T05:05:23;17.60;99.90
57434;DHT22;43277;52.672;6.984;2023-06-22T05:07:51;17.60;99.90
57434;DHT22;43277;52.672;6.984;2023-06-22T05:10:19;17.70;99.90
57434;DHT22;43277;52.672;6.984;2023-06-22T05:12:46;17.70;99.90
57434;DHT22;43277;52.672;6.984;2023-06-22T05:15:12;17.70;99.90
57434;DHT22;43277;52.672;6.984;2023-06-22T05:17:38;17.80;99.90
57434;DHT22;43277;52.672;6.984;2023-06-22T05:20:09;17.80;99.90
57434;DHT22;43277;52.672;6.984;2023-06-22T05:22:35;17.90;99.90
57434;DHT22;43277;52.672;6.984;2023-06-22T05:25:01;17.90;99.90
57434;DHT22;43277;52.672;6.984;2023-06-22T05:27:26;18.00;99.90
57434;DHT22;43277;52.672;6.984;2023-06-22T05:29:52;18.10;99.90
57434;DHT22;43277;52.672;6.984;2023-06-22T05:32:18;18.20;99.90
57434;DHT22;43277;52.672;6.984;2023-06-22T05:34:44;18.30;99.90
57434;DHT22;43277;52.672;6.984;2023-06-22T05:37:10;18.30;99.90
57434;DHT22;43277;52.672;6.984;2023-06-22T05:39:36;18.40;99.90
57434;DHT22;43277;52.672;6.984;2023-06-22T05:42:05;18.50;99.90
57434;DHT22;43277;52.672;6.984;2023-06-22T05:44:31;18.60;99.90
57434;DHT22;43277;52.672;6.984;2023-06-22T05:46:56;18.60;99.90
57434;DHT22;43277;52.672;6.984;2023-06-22T05:49:22;18.70;99.90
57434;DHT22;43277;52.672;6.984;2023-06-22T05:51:49;18.80;99.90
57434;DHT22;43277;52.672;6.984;2023-06-22T05:54:15;18.90;99.90
57434;DHT22;43277;52.672;6.984;2023-06-22T05:56:43;19.00;99.90
57434;DHT22;43277;52.672;6.984;2023-06-22T05:59:08;19.00;99.90
57434;DHT22;43277;52.672;6.984;2023-06-22T06:01:34;19.10;99.90
57434;DHT22;43277;52.672;6.984;2023-06-22T06:04:02;19.20;99.90
57434;DHT22;43277;52.672;6.984;2023-06-22T06:06:27;19.30;99.90
57434;DHT22;43277;52.672;6.984;2023-06-22T06:08:54;19.40;99.90
57434;DHT22;43277;52.672;6.984;2023-06-22T06:11:20;19.40;99.90
57434;DHT22;43277;52.672;6.984;2023-06-22T06:13:45;19.50;99.90
57434;DHT22;43277;52.672;6.984;2023-06-22T06:16:12;19.60;99.90
57434;DHT22;43277;52.672;6.984;2023-06-22T06:18:38;19.70;99.90
57434;DHT22;43277;52.672;6.984;2023-06-22T06:21:03;19.80;99.90
57434;DHT22;43277;52.672;6.984;2023-06-22T06:23:29;19.90;99.90
57434;DHT22;43277;52.672;6.984;2023-06-22T06:25:54;20.00;99.90
57434;DHT22;43277;52.672;6.984;2023-06-22T06:28:21;20.10;99.90
57434;DHT22;43277;52.672;6.984;2023-06-22T06:30:47;20.30;99.90
57434;DHT22;43277;52.672;6.984;2023-06-22T06:33:13;20.40;99.90
57434;DHT22;43277;52.672;6.984;2023-06-22T06:35:38;20.50;99.90
57434;DHT22;43277;52.672;6.984;2023-06-22T06:38:04;20.60;99.90
57434;DHT22;43277;52.672;6.984;2023-06-22T06:40:30;20.80;99.90
57434;DHT22;43277;52.672;6.984;2023-06-22T06:42:55;20.90;99.90
57434;DHT22;43277;52.672;6.984;2023-06-22T06:45:22;21.00;99.90
57434;DHT22;43277;52.672;6.984;2023-06-22T06:47:49;21.20;99.90
57434;DHT22;43277;52.672;6.984;2023-06-22T06:50:15;21.30;99.90
57434;DHT22;43277;52.672;6.984;2023-06-22T06:52:41;21.50;99.90
57434;DHT22;43277;52.672;6.984;2023-06-22T06:55:08;21.60;99.90
57434;DHT22;43277;52.672;6.984;2023-06-22T06:57:40;21.70;99.90
57434;DHT22;43277;52.672;6.984;2023-06-22T07:00:11;21.80;99.90
57434;DHT22;43277;52.672;6.984;2023-06-22T07:02:43;21.80;99.90
57434;DHT22;43277;52.672;6.984;2023-06-22T07:05:10;21.90;99.90
57434;DHT22;43277;52.672;6.984;2023-06-22T07:07:36;21.90;99.90
57434;DHT22;43277;52.672;6.984;2023-06-22T07:10:02;21.80;99.90
57434;DHT22;43277;52.672;6.984;2023-06-22T07:12:28;21.90;99.90
57434;DHT22;43277;52.672;6.984;2023-06-22T07:15:04;22.00;99.90
57434;DHT22;43277;52.672;6.984;2023-06-22T07:17:31;22.10;99.90
57434;DHT22;43277;52.672;6.984;2023-06-22T07:19:57;22.10;99.90
57434;DHT22;43277;52.672;6.984;2023-06-22T07:22:22;22.20;99.90
57434;DHT22;43277;52.672;6.984;2023-06-22T07:24:48;22.20;99.90
57434;DHT22;43277;52.672;6.984;2023-06-22T07:27:14;22.20;99.90
57434;DHT22;43277;52.672;6.984;2023-06-22T07:29:43;22.30;99.90
57434;DHT22;43277;52.672;6.984;2023-06-22T07:32:09;22.50;99.90
57434;DHT22;43277;52.672;6.984;2023-06-22T07:34:34;22.50;99.90
57434;DHT22;43277;52.672;6.984;2023-06-22T07:37:00;22.70;99.90
57434;DHT22;43277;52.672;6.984;2023-06-22T07:39:26;22.70;99.90
57434;DHT22;43277;52.672;6.984;2023-06-22T07:41:52;22.80;99.90
57434;DHT22;43277;52.672;6.984;2023-06-22T07:44:18;22.80;99.90
57434;DHT22;43277;52.672;6.984;2023-06-22T07:46:44;22.90;99.90
57434;DHT22;43277;52.672;6.984;2023-06-22T07:49:09;23.00;99.90
57434;DHT22;43277;52.672;6.984;2023-06-22T07:51:36;23.10;99.90
57434;DHT22;43277;52.672;6.984;2023-06-22T07:54:02;23.20;99.90
57434;DHT22;43277;52.672;6.984;2023-06-22T07:56:27;23.30;99.90
57434;DHT22;43277;52.672;6.984;2023-06-22T07:58:53;23.40;99.90
57434;DHT22;43277;52.672;6.984;2023-06-22T08:01:19;23.50;99.90
57434;DHT22;43277;52.672;6.984;2023-06-22T08:03:48;23.60;99.90
57434;DHT22;43277;52.672;6.984;2023-06-22T08:06:14;23.60;99.90
57434;DHT22;43277;52.672;6.984;2023-06-22T08:08:39;23.80;99.90
57434;DHT22;43277;52.672;6.984;2023-06-22T08:11:05;23.90;99.90
57434;DHT22;43277;52.672;6.984;2023-06-22T08:13:31;23.90;99.90
57434;DHT22;43277;52.672;6.984;2023-06-22T08:15:57;24.00;99.90
57434;DHT22;43277;52.672;6.984;2023-06-22T08:18:23;24.10;99.90
57434;DHT22;43277;52.672;6.984;2023-06-22T08:20:48;24.20;99.90
57434;DHT22;43277;52.672;6.984;2023-06-22T08:23:15;24.20;99.90
57434;DHT22;43277;52.672;6.984;2023-06-22T08:25:41;24.20;99.90
57434;DHT22;43277;52.672;6.984;2023-06-22T08:28:06;24.10;99.90
57434;DHT22;43277;52.672;6.984;2023-06-22T08:30:32;24.00;99.90
57434;DHT22;43277;52.672;6.984;2023-06-22T08:32:58;24.00;99.90
57434;DHT22;43277;52.672;6.984;2023-06-22T08:35:24;24.10;99.90
57434;DHT22;43277;52.672;6.984;2023-06-22T08:37:50;24.20;99.90
57434;DHT22;43277;52.672;6.984;2023-06-22T08:40:21;24.30;99.90
57434;DHT22;43277;52.672;6.984;2023-06-22T08:42:47;24.60;99.90
57434;DHT22;43277;52.672;6.984;2023-06-22T08:45:14;24.80;99.90
57434;DHT22;43277;52.672;6.984;2023-06-22T08:47:40;24.90;99.90
57434;DHT22;43277;52.672;6.984;2023-06-22T08:50:07;25.10;99.90
57434;DHT22;43277;52.672;6.984;2023-06-22T08:52:34;25.10;99.90
57434;DHT22;43277;52.672;6.984;2023-06-22T08:55:00;25.20;99.90
57434;DHT22;43277;52.672;6.984;2023-06-22T08:57:26;25.40;99.90
57434;DHT22;43277;52.672;6.984;2023-06-22T08:59:52;25.50;99.90
57434;DHT22;43277;52.672;6.984;2023-06-22T09:02:18;25.60;99.90
57434;DHT22;43277;52.672;6.984;2023-06-22T09:04:45;25.80;99.90
57434;DHT22;43277;52.672;6.984;2023-06-22T09:07:11;25.90;99.90
57434;DHT22;43277;52.672;6.984;2023-06-22T09:09:37;26.00;99.90
57434;DHT22;43277;52.672;6.984;2023-06-22T09:12:03;26.00;99.90
57434;DHT22;43277;52.672;6.984;2023-06-22T09:14:29;26.10;99.90
57434;DHT22;43277;52.672;6.984;2023-06-22T09:16:54;26.10;99.90
57434;DHT22;43277;52.672;6.984;2023-06-22T09:19:20;26.30;99.90
57434;DHT22;43277;52.672;6.984;2023-06-22T09:21:45;26.40;99.90
57434;DHT22;43277;52.672;6.984;2023-06-22T09:24:11;26.50;99.90
57434;DHT22;43277;52.672;6.984;2023-06-22T09:26:37;26.60;99.30
57434;DHT22;43277;52.672;6.984;2023-06-22T09:29:05;26.70;98.80
57434;DHT22;43277;52.672;6.984;2023-06-22T09:31:31;26.70;97.90
57434;DHT22;43277;52.672;6.984;2023-06-22T09:33:56;26.80;98.70
57434;DHT22;43277;52.672;6.984;2023-06-22T09:36:22;26.80;98.00
57434;DHT22;43277;52.672;6.984;2023-06-22T09:38:48;26.90;98.20
57434;DHT22;43277;52.672;6.984;2023-06-22T09:41:14;26.90;98.40
57434;DHT22;43277;52.672;6.984;2023-06-22T09:43:41;27.00;97.90
57434;DHT22;43277;52.672;6.984;2023-06-22T09:46:06;27.00;97.20
57434;DHT22;43277;52.672;6.984;2023-06-22T09:48:32;27.00;97.30
57434;DHT22;43277;52.672;6.984;2023-06-22T09:51:01;27.00;96.40
57434;DHT22;43277;52.672;6.984;2023-06-22T09:53:26;27.00;97.70
57434;DHT22;43277;52.672;6.984;2023-06-22T09:55:52;27.00;98.10
57434;DHT22;43277;52.672;6.984;2023-06-22T09:58:18;27.00;98.20
57434;DHT22;43277;52.672;6.984;2023-06-22T10:00:43;26.90;98.00
57434;DHT22;43277;52.672;6.984;2023-06-22T10:03:09;27.00;97.30
57434;DHT22;43277;52.672;6.984;2023-06-22T10:05:34;27.10;98.10
57434;DHT22;43277;52.672;6.984;2023-06-22T10:08:00;27.20;97.90
57434;DHT22;43277;52.672;6.984;2023-06-22T10:10:26;27.30;97.80
57434;DHT22;43277;52.672;6.984;2023-06-22T10:12:56;27.40;95.90
57434;DHT22;43277;52.672;6.984;2023-06-22T10:15:23;27.50;96.80
57434;DHT22;43277;52.672;6.984;2023-06-22T10:17:49;27.60;97.30
57434;DHT22;43277;52.672;6.984;2023-06-22T10:20:15;27.80;96.60
57434;DHT22;43277;52.672;6.984;2023-06-22T10:22:42;27.90;95.30
57434;DHT22;43277;52.672;6.984;2023-06-22T10:25:09;28.00;95.50
57434;DHT22;43277;52.672;6.984;2023-06-22T10:27:35;28.10;95.60
57434;DHT22;43277;52.672;6.984;2023-06-22T10:30:00;28.00;96.20
57434;DHT22;43277;52.672;6.984;2023-06-22T10:32:26;28.00;96.50
57434;DHT22;43277;52.672;6.984;2023-06-22T10:34:54;28.10;96.20
57434;DHT22;43277;52.672;6.984;2023-06-22T10:37:19;28.20;96.10
57434;DHT22;43277;52.672;6.984;2023-06-22T10:39:45;28.40;95.30
57434;DHT22;43277;52.672;6.984;2023-06-22T10:42:11;28.60;94.90
57434;DHT22;43277;52.672;6.984;2023-06-22T10:44:37;28.80;94.60
57434;DHT22;43277;52.672;6.984;2023-06-22T10:47:04;29.00;92.80
57434;DHT22;43277;52.672;6.984;2023-06-22T10:49:30;29.30;93.30
57434;DHT22;43277;52.672;6.984;2023-06-22T10:51:55;29.50;91.50
57434;DHT22;43277;52.672;6.984;2023-06-22T10:54:21;29.60;91.80
57434;DHT22;43277;52.672;6.984;2023-06-22T10:56:47;29.70;92.20
57434;DHT22;43277;52.672;6.984;2023-06-22T10:59:12;29.90;90.50
57434;DHT22;43277;52.672;6.984;2023-06-22T11:01:38;30.00;90.40
57434;DHT22;43277;52.672;6.984;2023-06-22T11:04:04;30.10;91.40
57434;DHT22;43277;52.672;6.984;2023-06-22T11:06:29;30.00;90.80
57434;DHT22;43277;52.672;6.984;2023-06-22T11:08:55;29.80;89.70
57434;DHT22;43277;52.672;6.984;2023-06-22T11:11:21;29.60;90.70
57434;DHT22;43277;52.672;6.984;2023-06-22T11:13:46;29.30;91.10
57434;DHT22;43277;52.672;6.984;2023-06-22T11:16:12;29.20;91.70
57434;DHT22;43277;52.672;6.984;2023-06-22T11:18:38;29.00;92.10
57434;DHT22;43277;52.672;6.984;2023-06-22T11:21:03;28.90;92.30
57434;DHT22;43277;52.672;6.984;2023-06-22T11:23:29;28.70;92.70
57434;DHT22;43277;52.672;6.984;2023-06-22T11:25:55;28.50;92.20
57434;DHT22;43277;52.672;6.984;2023-06-22T11:28:21;28.40;93.10
57434;DHT22;43277;52.672;6.984;2023-06-22T11:30:46;28.40;93.50
57434;DHT22;43277;52.672;6.984;2023-06-22T11:33:12;28.20;93.40
57434;DHT22;43277;52.672;6.984;2023-06-22T11:35:37;28.00;94.40
57434;DHT22;43277;52.672;6.984;2023-06-22T11:38:03;27.80;95.10
57434;DHT22;43277;52.672;6.984;2023-06-22T11:40:30;27.70;94.60
57434;DHT22;43277;52.672;6.984;2023-06-22T11:42:56;27.60;94.30
57434;DHT22;43277;52.672;6.984;2023-06-22T11:45:21;27.60;94.00
57434;DHT22;43277;52.672;6.984;2023-06-22T11:47:47;27.50;92.80
57434;DHT22;43277;52.672;6.984;2023-06-22T11:50:13;27.40;94.90
57434;DHT22;43277;52.672;6.984;2023-06-22T11:52:39;27.40;94.70
57434;DHT22;43277;52.672;6.984;2023-06-22T11:55:06;27.30;95.40
57434;DHT22;43277;52.672;6.984;2023-06-22T11:57:36;27.30;94.70
57434;DHT22;43277;52.672;6.984;2023-06-22T12:00:03;27.20;95.90
57434;DHT22;43277;52.672;6.984;2023-06-22T12:02:40;27.10;96.40
57434;DHT22;43277;52.672;6.984;2023-06-22T12:05:05;26.90;96.90
57434;DHT22;43277;52.672;6.984;2023-06-22T12:07:31;26.90;97.30
57434;DHT22;43277;52.672;6.984;2023-06-22T12:09:57;26.90;97.00
57434;DHT22;43277;52.672;6.984;2023-06-22T12:12:22;26.90;97.60
57434;DHT22;43277;52.672;6.984;2023-06-22T12:14:48;26.70;97.60
57434;DHT22;43277;52.672;6.984;2023-06-22T12:17:14;26.70;97.80
57434;DHT22;43277;52.672;6.984;2023-06-22T12:19:39;26.60;97.20
57434;DHT22;43277;52.672;6.984;2023-06-22T12:22:05;26.50;97.00
57434;DHT22;43277;52.672;6.984;2023-06-22T12:24:30;26.40;97.70
57434;DHT22;43277;52.672;6.984;2023-06-22T12:26:56;26.30;97.90
57434;DHT22;43277;52.672;6.984;2023-06-22T12:29:22;26.30;97.90
57434;DHT22;43277;52.672;6.984;2023-06-22T12:31:47;26.20;98.90
57434;DHT22;43277;52.672;6.984;2023-06-22T12:34:13;26.20;98.60
57434;DHT22;43277;52.672;6.984;2023-06-22T12:36:38;26.10;98.40
57434;DHT22;43277;52.672;6.984;2023-06-22T12:39:04;26.00;99.00
57434;DHT22;43277;52.672;6.984;2023-06-22T12:41:30;25.90;98.80
57434;DHT22;43277;52.672;6.984;2023-06-22T12:43:55;25.80;99.00
57434;DHT22;43277;52.672;6.984;2023-06-22T12:46:21;25.70;99.50
57434;DHT22;43277;52.672;6.984;2023-06-22T12:48:46;25.60;99.30
57434;DHT22;43277;52.672;6.984;2023-06-22T12:51:20;25.50;99.30
57434;DHT22;43277;52.672;6.984;2023-06-22T12:53:46;25.40;99.90
57434;DHT22;43277;52.672;6.984;2023-06-22T12:56:11;25.40;99.60
57434;DHT22;43277;52.672;6.984;2023-06-22T12:58:37;25.30;99.60
57434;DHT22;43277;52.672;6.984;2023-06-22T13:01:03;25.20;99.90
57434;DHT22;43277;52.672;6.984;2023-06-22T13:03:28;25.10;99.90
57434;DHT22;43277;52.672;6.984;2023-06-22T13:05:54;25.00;99.90
57434;DHT22;43277;52.672;6.984;2023-06-22T13:08:20;25.00;99.90
57434;DHT22;43277;52.672;6.984;2023-06-22T13:10:46;25.00;99.90
57434;DHT22;43277;52.672;6.984;2023-06-22T13:13:11;24.90;99.90
57434;DHT22;43277;52.672;6.984;2023-06-22T13:15:37;24.90;99.90
57434;DHT22;43277;52.672;6.984;2023-06-22T13:18:03;24.90;99.90
57434;DHT22;43277;52.672;6.984;2023-06-22T13:20:29;24.90;99.90
57434;DHT22;43277;52.672;6.984;2023-06-22T13:22:54;24.90;99.90
57434;DHT22;43277;52.672;6.984;2023-06-22T13:25:21;24.90;99.90
57434;DHT22;43277;52.672;6.984;2023-06-22T13:27:49;24.80;99.90
57434;DHT22;43277;52.672;6.984;2023-06-22T13:30:15;24.70;99.90
57434;DHT22;43277;52.672;6.984;2023-06-22T13:32:41;24.70;99.90
57434;DHT22;43277;52.672;6.984;2023-06-22T13:35:08;24.60;99.90
57434;DHT22;43277;52.672;6.984;2023-06-22T13:37:34;24.60;99.90
57434;DHT22;43277;52.672;6.984;2023-06-22T13:40:00;24.60;99.90
57434;DHT22;43277;52.672;6.984;2023-06-22T13:42:28;24.60;99.90
57434;DHT22;43277;52.672;6.984;2023-06-22T13:44:54;24.60;99.90
57434;DHT22;43277;52.672;6.984;2023-06-22T13:47:19;24.50;99.90
57434;DHT22;43277;52.672;6.984;2023-06-22T13:49:45;24.50;99.90
57434;DHT22;43277;52.672;6.984;2023-06-22T13:52:11;24.40;99.90
57434;DHT22;43277;52.672;6.984;2023-06-22T13:54:38;24.30;99.90
57434;DHT22;43277;52.672;6.984;2023-06-22T13:57:04;24.30;99.90
57434;DHT22;43277;52.672;6.984;2023-06-22T13:59:30;24.30;99.90
57434;DHT22;43277;52.672;6.984;2023-06-22T14:01:55;24.30;99.90
57434;DHT22;43277;52.672;6.984;2023-06-22T14:04:23;24.30;99.90
57434;DHT22;43277;52.672;6.984;2023-06-22T14:06:48;24.30;99.90
57434;DHT22;43277;52.672;6.984;2023-06-22T14:09:14;24.20;99.90
57434;DHT22;43277;52.672;6.984;2023-06-22T14:11:40;24.20;99.90
57434;DHT22;43277;52.672;6.984;2023-06-22T14:14:05;24.20;99.90
57434;DHT22;43277;52.672;6.984;2023-06-22T14:16:31;24.20;99.90
57434;DHT22;43277;52.672;6.984;2023-06-22T14:18:57;24.20;99.90
57434;DHT22;43277;52.672;6.984;2023-06-22T14:21:22;24.20;99.90
57434;DHT22;43277;52.672;6.984;2023-06-22T14:23:48;24.30;99.90
57434;DHT22;43277;52.672;6.984;2023-06-22T14:26:17;24.20;99.90
57434;DHT22;43277;52.672;6.984;2023-06-22T14:28:47;24.20;99.90
57434;DHT22;43277;52.672;6.984;2023-06-22T14:31:17;24.10;99.90
57434;DHT22;43277;52.672;6.984;2023-06-22T14:33:48;24.00;99.90
57434;DHT22;43277;52.672;6.984;2023-06-22T14:36:17;24.00;99.90
57434;DHT22;43277;52.672;6.984;2023-06-22T14:38:43;23.90;99.90
57434;DHT22;43277;52.672;6.984;2023-06-22T14:41:09;23.80;99.90
57434;DHT22;43277;52.672;6.984;2023-06-22T14:43:35;23.60;99.90
57434;DHT22;43277;52.672;6.984;2023-06-22T14:46:01;23.50;99.90
57434;DHT22;43277;52.672;6.984;2023-06-22T14:48:26;23.40;99.90
57434;DHT22;43277;52.672;6.984;2023-06-22T14:50:52;23.30;99.90
57434;DHT22;43277;52.672;6.984;2023-06-22T14:53:19;23.20;99.90
57434;DHT22;43277;52.672;6.984;2023-06-22T14:55:45;23.20;99.90
57434;DHT22;43277;52.672;6.984;2023-06-22T14:58:11;23.10;99.90
57434;DHT22;43277;52.672;6.984;2023-06-22T15:00:37;23.00;99.90
57434;DHT22;43277;52.672;6.984;2023-06-22T15:03:04;23.00;99.90
57434;DHT22;43277;52.672;6.984;2023-06-22T15:05:32;22.90;99.90
57434;DHT22;43277;52.672;6.984;2023-06-22T15:07:57;22.90;99.90
57434;DHT22;43277;52.672;6.984;2023-06-22T15:10:24;22.80;99.90
57434;DHT22;43277;52.672;6.984;2023-06-22T15:12:50;22.80;99.90
57434;DHT22;43277;52.672;6.984;2023-06-22T15:15:16;22.80;99.90
57434;DHT22;43277;52.672;6.984;2023-06-22T15:17:41;22.70;99.90
57434;DHT22;43277;52.672;6.984;2023-06-22T15:20:07;22.80;99.90
57434;DHT22;43277;52.672;6.984;2023-06-22T15:22:33;22.80;99.90
57434;DHT22;43277;52.672;6.984;2023-06-22T15:24:59;22.80;99.90
57434;DHT22;43277;52.672;6.984;2023-06-22T15:27:24;22.80;99.90
57434;DHT22;43277;52.672;6.984;2023-06-22T15:29:50;22.90;99.90
57434;DHT22;43277;52.672;6.984;2023-06-22T15:32:16;22.90;99.90